createdAt,value
2022-11-14T00:01:36.270Z,15.10
2022-11-14T00:04:26.837Z,15.00
2022-11-14T00:07:18.033Z,14.90
2022-11-14T00:10:08.128Z,14.90
2022-11-14T00:12:55.501Z,14.90
2022-11-14T00:15:45.460Z,15.00
2022-11-14T00:18:32.733Z,15.10
2022-11-14T00:21:20.159Z,15.10
2022-11-14T00:24:07.581Z,15.00
2022-11-14T00:26:56.786Z,15.00
2022-11-14T00:29:44.089Z,15.10
2022-11-14T00:32:32.461Z,15.10
2022-11-14T00:35:40.001Z,15.10
2022-11-14T00:38:27.617Z,15.20
2022-11-14T00:41:16.962Z,15.20
2022-11-14T00:44:05.560Z,15.20
2022-11-14T00:46:53.448Z,15.20
2022-11-14T00:49:40.560Z,15.30
2022-11-14T00:52:27.726Z,15.40
2022-11-14T00:55:15.402Z,15.40
2022-11-14T00:58:03.141Z,15.40
2022-11-14T01:00:52.599Z,15.30
2022-11-14T01:03:39.999Z,15.40
2022-11-14T01:06:27.240Z,15.30
2022-11-14T01:09:14.335Z,15.40
2022-11-14T01:12:01.436Z,15.40
2022-11-14T01:14:49.973Z,15.40
2022-11-14T01:17:38.579Z,15.50
2022-11-14T01:20:26.002Z,15.40
2022-11-14T01:23:14.755Z,15.50
2022-11-14T01:26:04.591Z,15.50
2022-11-14T01:28:51.979Z,15.50
2022-11-14T01:31:38.990Z,15.30
2022-11-14T01:34:27.731Z,15.20
2022-11-14T01:37:15.192Z,15.20
2022-11-14T01:40:02.398Z,15.30
2022-11-14T01:43:27.168Z,15.20
2022-11-14T01:46:16.660Z,15.20
2022-11-14T01:49:07.088Z,15.40
2022-11-14T01:52:03.126Z,15.40
2022-11-14T01:54:53.998Z,15.40
2022-11-14T01:57:45.366Z,15.30
2022-11-14T02:00:33.751Z,15.30
2022-11-14T02:03:21.797Z,15.30
2022-11-14T02:06:14.391Z,15.40
2022-11-14T02:09:06.724Z,15.40
2022-11-14T02:11:57.956Z,15.40
2022-11-14T02:14:48.124Z,15.40
2022-11-14T02:17:36.199Z,15.40
2022-11-14T02:20:28.788Z,15.40
2022-11-14T02:23:26.481Z,15.50
2022-11-14T02:26:13.703Z,15.50
2022-11-14T02:29:01.878Z,15.60
2022-11-14T02:31:48.986Z,15.50
2022-11-14T02:34:36.218Z,15.40
2022-11-14T02:37:24.824Z,15.30
2022-11-14T02:40:13.026Z,15.30
2022-11-14T02:43:00.507Z,15.30
2022-11-14T02:45:47.762Z,15.30
2022-11-14T02:48:35.065Z,15.20
2022-11-14T02:51:22.063Z,15.10
2022-11-14T02:54:10.660Z,15.20
2022-11-14T02:56:57.951Z,15.20
2022-11-14T02:59:45.149Z,15.30
2022-11-14T03:02:32.277Z,15.40
2022-11-14T03:05:19.827Z,15.50
2022-11-14T03:08:08.326Z,15.40
2022-11-14T03:10:57.702Z,15.40
2022-11-14T03:13:44.987Z,15.30
2022-11-14T03:16:32.369Z,15.30
2022-11-14T03:19:20.936Z,15.30
2022-11-14T03:22:08.436Z,15.40
2022-11-14T03:24:55.741Z,15.40
2022-11-14T03:27:44.331Z,15.40
2022-11-14T03:30:32.570Z,15.40
2022-11-14T03:33:19.897Z,15.40
2022-11-14T03:36:08.551Z,15.40
2022-11-14T03:38:56.038Z,15.30
2022-11-14T03:41:43.717Z,15.30
2022-11-14T03:44:32.395Z,15.30
2022-11-14T03:47:19.618Z,15.20
2022-11-14T03:50:07.866Z,15.30
2022-11-14T03:52:56.069Z,15.40
2022-11-14T03:55:45.104Z,15.40
2022-11-14T03:58:32.784Z,15.40
2022-11-14T04:01:22.755Z,15.30
2022-11-14T04:04:14.091Z,15.30
2022-11-14T04:07:01.623Z,15.40
2022-11-14T04:09:48.856Z,15.30
2022-11-14T04:12:36.118Z,15.30
2022-11-14T04:15:23.246Z,15.30
2022-11-14T04:18:11.884Z,15.40
2022-11-14T04:20:59.340Z,15.40
2022-11-14T04:23:46.662Z,15.40
2022-11-14T04:26:34.071Z,15.40
2022-11-14T04:29:21.431Z,15.40
2022-11-14T04:32:08.745Z,15.40
2022-11-14T04:34:58.158Z,15.40
2022-11-14T04:37:47.103Z,15.40
2022-11-14T04:40:36.275Z,15.40
2022-11-14T04:43:23.619Z,15.20
2022-11-14T04:46:10.826Z,15.30
2022-11-14T04:48:58.003Z,15.30
2022-11-14T04:51:46.771Z,15.30
2022-11-14T04:54:34.045Z,15.30
2022-11-14T04:57:21.225Z,15.20
2022-11-14T05:00:10.045Z,15.10
2022-11-14T05:02:57.143Z,15.20
2022-11-14T05:05:44.884Z,15.10
2022-11-14T05:08:33.512Z,15.00
2022-11-14T05:11:25.322Z,14.90
2022-11-14T05:14:16.448Z,14.90
2022-11-14T05:17:03.670Z,14.80
2022-11-14T05:19:50.884Z,14.90
2022-11-14T05:22:38.020Z,14.90
2022-11-14T05:25:27.036Z,14.90
2022-11-14T05:28:14.462Z,15.00
2022-11-14T05:31:05.981Z,14.90
2022-11-14T05:33:53.995Z,15.00
2022-11-14T05:36:41.252Z,14.90
2022-11-14T05:39:28.459Z,14.90
2022-11-14T05:42:17.001Z,14.90
2022-11-14T05:45:05.602Z,14.90
2022-11-14T05:47:55.118Z,14.90
2022-11-14T05:50:42.504Z,14.90
2022-11-14T05:53:31.326Z,14.90
2022-11-14T05:56:18.760Z,15.00
2022-11-14T05:59:07.244Z,15.00
2022-11-14T06:01:55.283Z,15.10
2022-11-14T06:04:42.829Z,15.20
2022-11-14T06:07:30.187Z,15.30
2022-11-14T06:10:18.545Z,15.30
2022-11-14T06:13:06.218Z,15.40
2022-11-14T06:15:54.934Z,15.50
2022-11-14T06:18:42.569Z,15.60
2022-11-14T06:21:29.977Z,15.70
2022-11-14T06:24:17.702Z,15.60
2022-11-14T06:27:05.797Z,15.60
2022-11-14T06:29:53.305Z,15.60
2022-11-14T06:32:41.801Z,15.60
2022-11-14T06:35:29.586Z,15.60
2022-11-14T06:38:17.058Z,15.60
2022-11-14T06:41:09.469Z,15.70
2022-11-14T06:43:56.681Z,15.80
2022-11-14T06:46:43.847Z,15.80
2022-11-14T06:49:36.575Z,16.00
2022-11-14T06:52:28.306Z,16.10
2022-11-14T06:55:17.675Z,16.10
2022-11-14T06:58:06.993Z,16.20
2022-11-14T07:00:54.548Z,16.20
2022-11-14T07:03:42.022Z,16.30
2022-11-14T07:06:32.236Z,16.20
2022-11-14T07:09:19.664Z,16.30
2022-11-14T07:12:08.711Z,16.40
2022-11-14T07:14:55.844Z,16.60
2022-11-14T07:17:42.938Z,16.60
2022-11-14T07:20:30.295Z,16.70
2022-11-14T07:23:22.818Z,16.90
2022-11-14T07:26:12.817Z,17.00
2022-11-14T07:29:02.841Z,17.10
2022-11-14T07:31:52.476Z,17.10
2022-11-14T07:34:39.439Z,17.00
2022-11-14T07:37:28.208Z,16.80
2022-11-14T07:40:17.458Z,16.90
2022-11-14T07:43:05.240Z,17.00
2022-11-14T07:45:53.076Z,17.10
2022-11-14T07:48:40.347Z,17.30
2022-11-14T07:51:27.899Z,17.50
2022-11-14T07:54:15.654Z,17.70
2022-11-14T07:57:04.665Z,17.90
2022-11-14T07:59:51.717Z,18.10
2022-11-14T08:02:39.123Z,18.30
2022-11-14T08:05:26.134Z,18.60
2022-11-14T08:08:14.386Z,18.70
2022-11-14T08:11:03.937Z,19.00
2022-11-14T08:13:52.659Z,19.20
2022-11-14T08:16:40.186Z,19.30
2022-11-14T08:19:27.370Z,19.50
2022-11-14T08:22:14.485Z,19.60
2022-11-14T08:25:02.560Z,19.80
2022-11-14T08:27:50.281Z,19.90
2022-11-14T08:30:39.224Z,20.00
2022-11-14T08:33:26.592Z,20.20
2022-11-14T08:36:13.863Z,20.20
2022-11-14T08:39:02.297Z,20.40
2022-11-14T08:41:51.015Z,20.30
2022-11-14T08:44:38.311Z,20.20
2022-11-14T08:47:26.941Z,20.20
2022-11-14T08:50:15.864Z,20.10
2022-11-14T08:53:04.373Z,20.10
2022-11-14T08:55:51.994Z,20.10
2022-11-14T08:58:40.482Z,20.20
2022-11-14T09:01:27.817Z,20.30
2022-11-14T09:04:16.552Z,20.30
2022-11-14T09:07:04.970Z,20.30
2022-11-14T09:09:54.387Z,20.10
2022-11-14T09:12:41.432Z,20.00
2022-11-14T09:15:29.810Z,20.10
2022-11-14T09:18:17.086Z,20.10
2022-11-14T09:21:07.871Z,19.90
2022-11-14T09:24:01.586Z,20.10
2022-11-14T09:26:55.243Z,20.30
2022-11-14T09:29:44.390Z,20.30
2022-11-14T09:32:31.660Z,20.30
2022-11-14T09:35:19.372Z,20.30
2022-11-14T09:38:11.401Z,20.30
2022-11-14T09:41:19.859Z,20.30
2022-11-14T09:44:30.840Z,20.40
2022-11-14T09:47:22.068Z,20.40
2022-11-14T09:50:15.058Z,20.40
2022-11-14T09:53:11.263Z,20.50
2022-11-14T09:56:07.632Z,20.60
2022-11-14T09:58:56.750Z,20.80
2022-11-14T10:01:51.038Z,21.00
2022-11-14T10:04:51.920Z,21.10
2022-11-14T10:07:47.723Z,21.10
2022-11-14T10:10:50.250Z,21.20
2022-11-14T10:14:09.912Z,21.20
2022-11-14T10:17:11.375Z,21.20
2022-11-14T10:20:05.089Z,21.30
2022-11-14T10:23:07.749Z,21.40
2022-11-14T10:26:21.402Z,21.50
2022-11-14T10:29:32.290Z,21.60
2022-11-14T10:35:35.083Z,21.70
2022-11-14T10:38:27.936Z,21.70
2022-11-14T10:41:34.775Z,21.50
2022-11-14T10:44:27.737Z,21.30
2022-11-14T10:47:18.719Z,21.20
2022-11-14T10:50:18.388Z,21.30
2022-11-14T10:53:22.833Z,21.30
2022-11-14T10:56:12.753Z,21.50
2022-11-14T10:59:00.163Z,21.50
2022-11-14T11:01:55.531Z,21.60
2022-11-14T11:04:44.489Z,21.60
2022-11-14T11:07:48.952Z,21.60
2022-11-14T11:11:00.772Z,21.70
2022-11-14T11:13:56.013Z,21.70
2022-11-14T11:16:44.772Z,21.60
2022-11-14T11:19:33.137Z,21.70
2022-11-14T11:22:36.324Z,21.70
2022-11-14T11:25:26.436Z,21.80
2022-11-14T11:28:16.858Z,22.00
2022-11-14T11:31:09.055Z,22.00
2022-11-14T11:33:57.285Z,22.10
2022-11-14T11:36:50.726Z,22.10
2022-11-14T11:39:44.634Z,22.00
2022-11-14T11:45:51.313Z,22.10
2022-11-14T11:48:41.009Z,22.10
2022-11-14T11:51:28.984Z,22.10
2022-11-14T11:54:19.863Z,22.10
2022-11-14T11:57:20.068Z,22.10
2022-11-14T12:00:17.359Z,22.10
2022-11-14T12:03:12.529Z,22.20
2022-11-14T12:06:09.211Z,22.10
2022-11-14T12:09:09.396Z,22.00
2022-11-14T12:12:03.526Z,21.80
2022-11-14T12:15:03.422Z,22.30
2022-11-14T12:18:18.450Z,22.40
2022-11-14T12:21:14.716Z,22.30
2022-11-14T12:24:33.714Z,22.10
2022-11-14T12:27:33.384Z,21.90
2022-11-14T12:30:23.136Z,21.70
2022-11-14T12:33:17.682Z,21.60
2022-11-14T12:36:11.377Z,21.60
2022-11-14T12:38:59.288Z,21.50
2022-11-14T12:41:46.376Z,21.40
2022-11-14T12:44:39.151Z,22.40
2022-11-14T12:47:28.221Z,22.90
2022-11-14T12:50:42.237Z,23.50
2022-11-14T12:53:42.295Z,23.60
2022-11-14T12:57:09.918Z,22.80
2022-11-14T13:00:05.314Z,22.30
2022-11-14T13:03:15.923Z,21.90
2022-11-14T13:06:10.059Z,21.60
2022-11-14T13:09:43.301Z,21.50
2022-11-14T13:12:50.499Z,21.30
2022-11-14T13:16:12.106Z,21.20
2022-11-14T13:19:31.180Z,21.00
2022-11-14T13:22:37.299Z,20.90
2022-11-14T13:25:29.186Z,20.90
2022-11-14T13:28:48.664Z,20.90
2022-11-14T13:31:53.060Z,20.90
2022-11-14T13:34:51.136Z,20.90
2022-11-14T13:38:03.524Z,20.80
2022-11-14T13:41:04.036Z,20.70
2022-11-14T13:44:18.475Z,20.50
2022-11-14T13:47:23.161Z,20.50
2022-11-14T13:50:13.641Z,20.50
2022-11-14T13:53:02.533Z,20.40
2022-11-14T13:55:57.488Z,20.40
2022-11-14T13:59:06.565Z,20.30
2022-11-14T14:02:16.366Z,20.20
2022-11-14T14:05:17.730Z,20.30
2022-11-14T14:08:21.196Z,20.40
2022-11-14T14:11:29.120Z,20.40
2022-11-14T14:14:40.079Z,20.40
2022-11-14T14:17:34.207Z,20.40
2022-11-14T14:20:37.451Z,20.40
2022-11-14T14:23:38.595Z,20.50
2022-11-14T14:26:34.780Z,20.50
2022-11-14T14:29:26.417Z,20.50
2022-11-14T14:32:16.593Z,20.40
2022-11-14T14:35:23.546Z,20.40
2022-11-14T14:38:14.339Z,20.40
2022-11-14T14:41:03.028Z,20.30
2022-11-14T14:43:56.168Z,20.20
2022-11-14T14:46:43.364Z,20.10
2022-11-14T14:49:35.696Z,19.90
2022-11-14T14:52:30.547Z,19.80
2022-11-14T14:55:22.894Z,19.90
2022-11-14T14:58:25.019Z,19.90
2022-11-14T15:01:15.317Z,19.80
2022-11-14T15:04:06.402Z,19.70
2022-11-14T15:06:56.215Z,19.70
2022-11-14T15:09:54.304Z,19.60
2022-11-14T15:12:43.288Z,19.50
2022-11-14T15:15:34.993Z,19.40
2022-11-14T15:18:29.052Z,19.40
2022-11-14T15:21:24.677Z,19.20
2022-11-14T15:24:17.737Z,19.10
2022-11-14T15:27:08.291Z,19.00
2022-11-14T15:30:00.885Z,18.80
2022-11-14T15:32:52.235Z,18.70
2022-11-14T15:35:40.964Z,18.60
2022-11-14T15:38:44.863Z,18.50
2022-11-14T15:41:32.941Z,18.40
2022-11-14T15:44:34.937Z,18.30
2022-11-14T15:47:25.030Z,18.10
2022-11-14T15:50:29.567Z,18.00
2022-11-14T15:53:23.854Z,18.00
2022-11-14T15:56:13.481Z,17.90
2022-11-14T15:59:01.160Z,18.00
2022-11-14T16:01:53.333Z,18.00
2022-11-14T16:04:46.145Z,17.90
2022-11-14T16:07:36.464Z,17.90
2022-11-14T16:10:26.221Z,17.80
2022-11-14T16:13:13.493Z,17.80
2022-11-14T16:16:00.618Z,17.70
2022-11-14T16:18:47.711Z,17.60
2022-11-14T16:21:35.477Z,17.60
2022-11-14T16:24:29.759Z,17.50
2022-11-14T16:27:19.618Z,17.40
2022-11-14T16:30:08.298Z,17.30
2022-11-14T16:32:55.836Z,17.20
2022-11-14T16:35:45.872Z,17.20
2022-11-14T16:38:33.369Z,17.30
2022-11-14T16:41:25.814Z,17.50
2022-11-14T16:44:18.913Z,17.40
2022-11-14T16:47:06.227Z,17.50
2022-11-14T16:49:53.322Z,17.40
2022-11-14T16:52:40.918Z,17.40
2022-11-14T16:55:28.328Z,17.40
2022-11-14T16:58:17.679Z,17.30
2022-11-14T17:01:07.611Z,17.10
2022-11-14T17:04:00.181Z,17.10
2022-11-14T17:06:47.429Z,17.10
2022-11-14T17:09:35.630Z,17.20
2022-11-14T17:12:22.899Z,17.20
2022-11-14T17:15:14.386Z,17.20
2022-11-14T17:18:01.551Z,17.20
2022-11-14T17:20:48.690Z,17.10
2022-11-14T17:23:36.811Z,17.00
2022-11-14T17:26:24.392Z,16.90
2022-11-14T17:29:12.944Z,16.80
2022-11-14T17:32:02.432Z,16.80
2022-11-14T17:34:49.801Z,16.80
2022-11-14T17:37:36.930Z,16.80
2022-11-14T17:40:24.098Z,16.90
2022-11-14T17:43:12.515Z,16.90
2022-11-14T17:45:59.788Z,16.90
2022-11-14T17:48:49.802Z,16.80
2022-11-14T17:51:37.552Z,16.90
2022-11-14T17:54:25.128Z,16.90
2022-11-14T17:57:13.470Z,16.80
2022-11-14T18:00:01.543Z,16.70
2022-11-14T18:02:48.724Z,16.60
2022-11-14T18:05:37.809Z,16.70
2022-11-14T18:08:26.010Z,16.80
2022-11-14T18:11:23.693Z,16.60
2022-11-14T18:14:12.091Z,16.60
2022-11-14T18:17:12.156Z,16.60
2022-11-14T18:20:01.457Z,16.60
2022-11-14T18:22:50.530Z,16.60
2022-11-14T18:25:38.329Z,16.60
2022-11-14T18:28:27.058Z,16.80
2022-11-14T18:31:14.861Z,17.00
2022-11-14T18:34:02.915Z,17.00
2022-11-14T18:36:49.981Z,17.00
2022-11-14T18:39:38.640Z,16.90
2022-11-14T18:42:26.612Z,16.90
2022-11-14T18:45:14.601Z,16.60
2022-11-14T18:48:02.014Z,16.40
2022-11-14T18:50:51.013Z,16.40
2022-11-14T18:53:38.569Z,16.50
2022-11-14T18:56:29.475Z,16.50
2022-11-14T18:59:17.966Z,16.40
2022-11-14T19:02:05.604Z,16.20
2022-11-14T19:04:53.204Z,16.10
2022-11-14T19:07:41.365Z,16.10
2022-11-14T19:10:29.153Z,16.10
2022-11-14T19:13:18.128Z,16.10
2022-11-14T19:16:07.802Z,16.00
2022-11-14T19:18:56.267Z,16.00
2022-11-14T19:21:44.176Z,16.10
2022-11-14T19:24:34.488Z,16.10
2022-11-14T19:27:22.992Z,16.10
2022-11-14T19:30:13.046Z,16.00
2022-11-14T19:33:00.145Z,16.00
2022-11-14T19:35:50.588Z,15.90
2022-11-14T19:38:38.179Z,15.90
2022-11-14T19:41:28.000Z,15.90
2022-11-14T19:44:16.013Z,15.80
2022-11-14T19:47:05.132Z,15.70
2022-11-14T19:49:59.275Z,15.60
2022-11-14T19:52:46.600Z,15.50
2022-11-14T19:55:37.676Z,15.30
2022-11-14T19:58:41.868Z,15.20
2022-11-14T20:01:29.979Z,15.30
2022-11-14T20:04:18.707Z,15.30
2022-11-14T20:07:06.437Z,15.40
2022-11-14T20:09:53.491Z,15.40
2022-11-14T20:12:45.928Z,15.40
2022-11-14T20:15:33.540Z,15.30
2022-11-14T20:18:20.738Z,15.20
2022-11-14T20:21:13.993Z,15.00
2022-11-14T20:24:01.963Z,15.20
2022-11-14T20:26:52.291Z,15.30
2022-11-14T20:29:41.605Z,15.20
2022-11-14T20:32:28.992Z,15.40
2022-11-14T20:35:17.429Z,15.40
2022-11-14T20:38:06.386Z,15.40
2022-11-14T20:40:58.344Z,15.30
2022-11-14T20:43:45.708Z,15.40
2022-11-14T20:46:34.436Z,15.30
2022-11-14T20:49:23.112Z,15.30
2022-11-14T20:52:10.332Z,15.30
2022-11-14T20:54:58.975Z,15.20
2022-11-14T20:57:47.416Z,15.10
2022-11-14T21:00:35.241Z,15.00
2022-11-14T21:03:22.381Z,14.90
2022-11-14T21:06:12.837Z,14.80
2022-11-14T21:08:59.738Z,14.70
2022-11-14T21:11:49.770Z,14.70
2022-11-14T21:17:39.059Z,14.90
2022-11-14T21:20:26.235Z,14.80
2022-11-14T21:23:13.708Z,14.80
2022-11-14T21:26:12.084Z,14.80
2022-11-14T21:29:02.595Z,14.80
2022-11-14T21:31:50.799Z,14.90
2022-11-14T21:34:38.222Z,14.90
2022-11-14T21:37:25.711Z,14.90
2022-11-14T21:40:14.755Z,14.90
2022-11-14T21:43:01.915Z,15.00
2022-11-14T21:45:58.839Z,15.00
2022-11-14T21:48:51.133Z,15.10
2022-11-14T21:51:39.785Z,15.10
2022-11-14T21:54:27.175Z,15.10
2022-11-14T21:57:15.611Z,15.10
2022-11-14T22:00:03.196Z,15.10
2022-11-14T22:03:15.040Z,15.20
2022-11-14T22:06:06.334Z,15.10
2022-11-14T22:08:54.723Z,15.10
2022-11-14T22:11:42.352Z,14.90
2022-11-14T22:14:30.645Z,14.90
2022-11-14T22:17:18.046Z,14.90
2022-11-14T22:20:08.139Z,14.90
2022-11-14T22:22:55.800Z,14.90
2022-11-14T22:25:42.956Z,14.80
2022-11-14T22:28:30.530Z,14.80
2022-11-14T22:31:20.207Z,14.90
2022-11-14T22:34:07.270Z,14.90
2022-11-14T22:36:56.079Z,14.80
2022-11-14T22:39:43.506Z,14.70
2022-11-14T22:42:31.719Z,14.80
2022-11-14T22:45:18.879Z,14.80
2022-11-14T22:48:08.040Z,14.90
2022-11-14T22:51:01.027Z,14.90
2022-11-14T22:53:51.565Z,14.90
2022-11-14T22:56:39.111Z,14.80
2022-11-14T22:59:26.404Z,14.80
2022-11-14T23:02:13.860Z,14.90
2022-11-14T23:05:01.857Z,14.90
2022-11-14T23:07:49.335Z,15.00
2022-11-14T23:10:38.284Z,15.00
2022-11-14T23:13:25.630Z,15.10
2022-11-14T23:16:13.254Z,15.10
2022-11-14T23:19:02.387Z,15.00
2022-11-14T23:21:50.518Z,15.00
2022-11-14T23:24:38.687Z,14.90
2022-11-14T23:27:27.396Z,14.80
2022-11-14T23:30:15.542Z,14.80
2022-11-14T23:33:02.900Z,14.90
2022-11-14T23:35:50.008Z,15.00
2022-11-14T23:38:37.344Z,15.10
2022-11-14T23:41:26.820Z,15.00
2022-11-14T23:44:15.352Z,14.80
2022-11-14T23:47:02.785Z,14.80
2022-11-14T23:49:49.907Z,14.70
2022-11-14T23:52:37.156Z,14.50
2022-11-14T23:55:25.428Z,14.30
2022-11-14T23:58:12.570Z,14.10
